Terminal Aerodrome Forecast
Issued by NWS

Home | Current Version | Previous Version | Text Only | Print | Product List | Glossary On
Versions: 1 2 3 4 5 6 7 8 9 10 11 12
000
FTUS42 KGSP 040535
TAFGMU
TAF
KGMU 040535Z 0406/0506 01006KT P6SM FEW250
     FM041500 05005KT P6SM SCT060 PROB30 0419/0423 4SM TSRA BKN040CB
     FM042300 04006KT P6SM BKN070 PROB30 0423/0505 4SM TSRA
      BKN040CB=

USA.gov is the U.S. government's official web portal to all federal, state and local government web resources and services.